Time;durP1;ratioP1;P1;durP2;ratioP2;P2;SDS_P1;SDS_P2;PMS_P1;PMS_P2;Temp;Humidity;BMP_temperature;BMP_pressure;BME280_temperature;BME280_humidity;BME280_pressure;Samples;Min_cycle;Max_cycle;Signal;HPM_P1;HPM_P2
2022/07/25 00:01:08;;;;;;;9.98;5.53;;;;;;;;;;7312476;19;153507;-16
2022/07/25 00:03:41;;;;;;;8.35;4.65;;;;;;;;;;7312102;19;162234;-16
2022/07/25 00:06:12;;;;;;;9.65;4.95;;;;;;;;;;7312004;19;163232;-15
2022/07/25 00:08:44;;;;;;;5.72;4.95;;;;;;;;;;7312269;19;154475;-15
2022/07/25 00:11:15;;;;;;;7.38;4.65;;;;;;;;;;7312358;19;154292;-16
2022/07/25 00:13:46;;;;;;;7.68;4.95;;;;;;;;;;7311508;19;162355;-16
2022/07/25 00:16:17;;;;;;;7.35;4.63;;;;;;;;;;7309760;19;163061;-16
2022/07/25 00:18:51;;;;;;;5.53;4.10;;;;;;;;;;7310984;19;154454;-16
2022/07/25 00:21:22;;;;;;;9.07;4.32;;;;;;;;;;7312054;19;153615;-16
2022/07/25 00:23:54;;;;;;;10.02;5.18;;;;;;;;;;7311539;19;162655;-17
2022/07/25 00:26:25;;;;;;;8.55;4.53;;;;;;;;;;7311294;19;163882;-23
2022/07/25 00:28:56;;;;;;;6.85;4.38;;;;;;;;;;7312102;19;154637;-28
2022/07/25 00:31:28;;;;;;;6.18;4.57;;;;;;;;;;7308961;19;153922;-17
2022/07/25 00:34:02;;;;;;;10.15;4.97;;;;;;;;;;7311202;19;162655;-15
2022/07/25 00:36:34;;;;;;;8.52;4.65;;;;;;;;;;7311032;19;162875;-15
2022/07/25 00:39:05;;;;;;;8.98;4.70;;;;;;;;;;7311761;19;154499;-15
2022/07/25 00:41:38;;;;;;;6.93;4.53;;;;;;;;;;7311545;19;153978;-16
2022/07/25 00:44:09;;;;;;;5.88;4.50;;;;;;;;;;7311167;19;162773;-15
2022/07/25 00:46:40;;;;;;;7.95;4.70;;;;;;;;;;7310874;19;162821;-16
2022/07/25 00:49:14;;;;;;;9.82;4.30;;;;;;;;;;7311153;19;154374;-16
2022/07/25 00:51:46;;;;;;;6.47;4.05;;;;;;;;;;7309666;19;154121;-15
2022/07/25 00:54:18;;;;;;;5.72;3.60;;;;;;;;;;7310672;19;162325;-15
2022/07/25 00:56:49;;;;;;;7.13;3.95;;;;;;;;;;7310417;19;163210;-16
2022/07/25 00:59:20;;;;;;;8.35;4.05;;;;;;;;;;7311331;19;155149;-15
2022/07/25 01:01:52;;;;;;;5.72;4.18;;;;;;;;;;7309440;19;154106;-16
2022/07/25 01:04:25;;;;;;;5.93;4.07;;;;;;;;;;7310547;19;162722;-16
2022/07/25 01:06:57;;;;;;;5.10;3.85;;;;;;;;;;7310355;19;162774;-15
2022/07/25 01:09:29;;;;;;;7.68;3.95;;;;;;;;;;7310856;19;154954;-16
2022/07/25 01:12:00;;;;;;;9.48;4.15;;;;;;;;;;7310622;19;153938;-16
2022/07/25 01:14:31;;;;;;;6.35;3.92;;;;;;;;;;7310111;19;163289;-16
2022/07/25 01:17:03;;;;;;;6.65;4.10;;;;;;;;;;7309950;19;163185;-15
2022/07/25 01:19:36;;;;;;;5.95;4.13;;;;;;;;;;7310565;19;154418;-15
2022/07/25 01:22:10;;;;;;;5.38;3.90;;;;;;;;;;7310658;19;154070;-15
2022/07/25 01:24:42;;;;;;;6.82;4.25;;;;;;;;;;7309837;19;162895;-16
2022/07/25 01:27:13;;;;;;;7.53;3.92;;;;;;;;;;7309849;19;163897;-16
2022/07/25 01:29:44;;;;;;;7.75;3.80;;;;;;;;;;7309215;19;154510;-15
2022/07/25 01:32:15;;;;;;;7.25;3.50;;;;;;;;;;7310254;19;153862;-15
2022/07/25 01:34:47;;;;;;;5.80;3.80;;;;;;;;;;7309613;19;162654;-22
2022/07/25 01:37:20;;;;;;;8.07;4.45;;;;;;;;;;7308990;19;163190;-16
2022/07/25 01:39:52;;;;;;;8.98;4.40;;;;;;;;;;7309642;19;154560;-15
2022/07/25 01:42:23;;;;;;;7.45;3.47;;;;;;;;;;7309693;19;154029;-15
2022/07/25 01:44:54;;;;;;;7.88;4.22;;;;;;;;;;7309315;19;162604;-15
2022/07/25 01:47:25;;;;;;;6.25;4.03;;;;;;;;;;7309088;19;162973;-16
2022/07/25 01:49:57;;;;;;;6.50;3.67;;;;;;;;;;7309602;19;154442;-15
2022/07/25 01:52:30;;;;;;;8.05;3.90;;;;;;;;;;7309308;19;154113;-15
2022/07/25 01:55:02;;;;;;;6.38;3.33;;;;;;;;;;7313578;19;162332;-15
2022/07/25 01:57:33;;;;;;;12.63;4.20;;;;;;;;;;7315733;19;162896;-16
2022/07/25 02:00:06;;;;;;;7.20;3.80;;;;;;;;;;7316097;19;154533;-16
2022/07/25 02:02:44;;;;;;;7.50;3.70;;;;;;;;;;7314426;19;153949;-15
2022/07/25 02:05:17;;;;;;;6.47;4.00;;;;;;;;;;7314115;19;162287;-15
2022/07/25 02:07:51;;;;;;;7.95;4.05;;;;;;;;;;7315892;19;162768;-16
2022/07/25 02:10:22;;;;;;;5.40;4.28;;;;;;;;;;7315839;19;154498;-15
2022/07/25 02:12:53;;;;;;;7.72;3.50;;;;;;;;;;7315730;19;154349;-16
2022/07/25 02:15:24;;;;;;;6.93;3.97;;;;;;;;;;7315290;19;162150;-15
2022/07/25 02:17:55;;;;;;;8.80;4.60;;;;;;;;;;7314614;19;163293;-16
2022/07/25 02:20:27;;;;;;;5.38;3.72;;;;;;;;;;7314124;19;154441;-16
2022/07/25 02:23:01;;;;;;;6.05;3.65;;;;;;;;;;7315366;19;154063;-16
2022/07/25 02:25:32;;;;;;;6.93;3.92;;;;;;;;;;7314930;19;162736;-15
2022/07/25 02:28:03;;;;;;;6.00;3.83;;;;;;;;;;7314920;19;162847;-16
2022/07/25 02:30:34;;;;;;;7.30;4.05;;;;;;;;;;7313660;19;154482;-15
2022/07/25 02:33:06;;;;;;;10.10;3.83;;;;;;;;;;7315067;19;154007;-16
2022/07/25 02:35:37;;;;;;;7.22;3.85;;;;;;;;;;7314850;19;162337;-16
2022/07/25 02:38:18;;;;;;;8.60;4.05;;;;;;;;;;7314052;19;163475;-16
2022/07/25 02:40:49;;;;;;;5.82;4.03;;;;;;;;;;7315135;19;154512;-16
2022/07/25 02:43:21;;;;;;;5.57;4.15;;;;;;;;;;7314497;19;154439;-15
2022/07/25 02:45:52;;;;;;;6.93;4.27;;;;;;;;;;7314480;19;162364;-16
2022/07/25 02:48:24;;;;;;;7.38;4.10;;;;;;;;;;7314405;19;162924;-16
2022/07/25 02:50:55;;;;;;;6.57;4.15;;;;;;;;;;7314720;19;154997;-15
2022/07/25 02:53:28;;;;;;;8.93;4.40;;;;;;;;;;7313367;19;154015;-16
2022/07/25 02:56:16;;;;;;;4.97;3.97;;;;;;;;;;7314227;19;162643;-17
2022/07/25 02:58:48;;;;;;;7.15;3.88;;;;;;;;;;7313196;19;163444;-16
2022/07/25 03:01:19;;;;;;;5.70;3.92;;;;;;;;;;7314295;19;154776;-16
2022/07/25 03:03:50;;;;;;;6.47;3.85;;;;;;;;;;7314633;19;153991;-15
2022/07/25 03:06:21;;;;;;;7.43;4.15;;;;;;;;;;7311108;19;162245;-16
2022/07/25 03:08:55;;;;;;;5.63;3.90;;;;;;;;;;7313672;19;163084;-16
2022/07/25 03:11:26;;;;;;;8.02;4.20;;;;;;;;;;7314185;19;154611;-15
2022/07/25 03:13:58;;;;;;;4.82;3.40;;;;;;;;;;7312766;19;154050;-16
2022/07/25 03:16:29;;;;;;;8.68;3.65;;;;;;;;;;7313621;19;162978;-16
2022/07/25 03:19:00;;;;;;;6.78;4.18;;;;;;;;;;7312722;19;162787;-16
2022/07/25 03:21:31;;;;;;;6.47;3.80;;;;;;;;;;7313898;19;154774;-16
2022/07/25 03:24:05;;;;;;;6.72;4.15;;;;;;;;;;7313388;19;154438;-16
2022/07/25 03:26:36;;;;;;;6.35;3.50;;;;;;;;;;7312753;19;162390;-15
2022/07/25 03:29:08;;;;;;;6.18;3.80;;;;;;;;;;7313270;19;162855;-16
2022/07/25 03:31:39;;;;;;;4.68;3.55;;;;;;;;;;7313256;19;154807;-16
2022/07/25 03:34:10;;;;;;;7.03;3.90;;;;;;;;;;7313287;19;154077;-15
2022/07/25 03:36:41;;;;;;;5.07;3.78;;;;;;;;;;7313043;19;162166;-16
2022/07/25 03:39:16;;;;;;;5.88;3.90;;;;;;;;;;7312071;19;163313;-16
2022/07/25 03:41:47;;;;;;;6.82;4.15;;;;;;;;;;7313377;19;154546;-15
2022/07/25 03:44:18;;;;;;;7.10;3.83;;;;;;;;;;7313145;19;154354;-16
2022/07/25 03:46:49;;;;;;;4.35;3.65;;;;;;;;;;7312646;19;162204;-15
2022/07/25 03:49:21;;;;;;;4.93;3.90;;;;;;;;;;7312678;19;163268;-16
2022/07/25 03:51:52;;;;;;;6.78;3.85;;;;;;;;;;7313018;19;155149;-15
2022/07/25 03:54:26;;;;;;;5.82;3.75;;;;;;;;;;7311272;19;154037;-16
2022/07/25 03:56:57;;;;;;;6.18;4.07;;;;;;;;;;7310747;19;162991;-16
2022/07/25 03:59:28;;;;;;;5.97;3.83;;;;;;;;;;7311675;19;162820;-16
2022/07/25 04:02:00;;;;;;;5.60;3.97;;;;;;;;;;7312726;19;154451;-17
2022/07/25 04:04:31;;;;;;;6.75;4.10;;;;;;;;;;7312789;19;154569;-17
2022/07/25 04:07:02;;;;;;;5.65;3.78;;;;;;;;;;7312427;19;162221;-17
2022/07/25 04:09:36;;;;;;;4.88;3.80;;;;;;;;;;7312062;19;163015;-16
2022/07/25 04:12:08;;;;;;;4.88;4.38;;;;;;;;;;7312573;19;154844;-16
2022/07/25 04:14:39;;;;;;;5.70;4.33;;;;;;;;;;7312362;19;154514;-16
2022/07/25 04:17:10;;;;;;;6.32;3.80;;;;;;;;;;7310852;19;162250;-16
2022/07/25 04:19:41;;;;;;;5.72;3.95;;;;;;;;;;7310616;19;162744;-16
2022/07/25 04:22:12;;;;;;;5.55;4.35;;;;;;;;;;7311995;19;154421;-16
2022/07/25 04:24:46;;;;;;;7.03;4.53;;;;;;;;;;7312365;19;153921;-16
2022/07/25 04:27:18;;;;;;;6.93;5.38;;;;;;;;;;7311809;19;162296;-16
2022/07/25 04:29:49;;;;;;;8.43;4.82;;;;;;;;;;7310571;19;162827;-16
2022/07/25 04:32:21;;;;;;;6.00;4.55;;;;;;;;;;7311692;19;154636;-16
2022/07/25 04:34:54;;;;;;;5.05;4.43;;;;;;;;;;7311827;19;154556;-16
2022/07/25 04:37:25;;;;;;;8.02;4.65;;;;;;;;;;7309755;19;162774;-16
2022/07/25 04:39:59;;;;;;;5.78;4.80;;;;;;;;;;7310345;19;162837;-16
2022/07/25 04:42:30;;;;;;;6.93;5.03;;;;;;;;;;7309789;19;154471;-16
2022/07/25 04:45:01;;;;;;;6.65;4.68;;;;;;;;;;7311437;19;154102;-17
2022/07/25 04:47:32;;;;;;;8.35;5.10;;;;;;;;;;7310894;19;162438;-15
2022/07/25 04:50:03;;;;;;;7.30;4.95;;;;;;;;;;7310787;19;162778;-16
2022/07/25 04:52:35;;;;;;;7.47;5.50;;;;;;;;;;7311118;19;154530;-16
2022/07/25 04:55:09;;;;;;;6.97;4.60;;;;;;;;;;7311067;19;154046;-16
2022/07/25 04:57:40;;;;;;;6.05;4.72;;;;;;;;;;7310925;19;162619;-16
2022/07/25 05:00:13;;;;;;;7.78;5.05;;;;;;;;;;7309396;19;163370;-16
2022/07/25 05:02:47;;;;;;;5.22;4.68;;;;;;;;;;7310843;19;154886;-15
2022/07/25 05:05:18;;;;;;;6.85;4.40;;;;;;;;;;7310628;19;153991;-16
2022/07/25 05:07:49;;;;;;;7.28;4.97;;;;;;;;;;7308498;19;162278;-16
2022/07/25 05:10:23;;;;;;;6.95;4.90;;;;;;;;;;7310257;19;162826;-16
2022/07/25 05:12:54;;;;;;;8.65;5.25;;;;;;;;;;7308964;19;154474;-16
2022/07/25 05:15:25;;;;;;;6.68;4.47;;;;;;;;;;7308886;19;154416;-16
2022/07/25 05:17:57;;;;;;;6.28;4.28;;;;;;;;;;7310107;19;162230;-16
2022/07/25 05:20:28;;;;;;;5.55;4.30;;;;;;;;;;7309048;19;163364;-16
2022/07/25 05:22:59;;;;;;;7.55;4.25;;;;;;;;;;7310374;19;156002;-16
2022/07/25 05:25:33;;;;;;;7.82;3.95;;;;;;;;;;7310225;19;154064;-16
2022/07/25 05:28:04;;;;;;;7.18;4.15;;;;;;;;;;7309873;19;162358;-16
2022/07/25 05:30:35;;;;;;;7.20;4.50;;;;;;;;;;7313738;19;162785;-17
2022/07/25 05:33:09;;;;;;;6.18;4.55;;;;;;;;;;7316292;19;154488;-16
2022/07/25 05:35:40;;;;;;;12.73;5.20;;;;;;;;;;7317597;19;154025;-16
2022/07/25 05:38:11;;;;;;;8.93;5.40;;;;;;;;;;7318297;19;162311;-16
2022/07/25 05:40:45;;;;;;;8.60;4.78;;;;;;;;;;7315891;19;162898;-18
2022/07/25 05:43:16;;;;;;;8.52;4.60;;;;;;;;;;7316938;19;154618;-16
2022/07/25 05:45:48;;;;;;;10.20;4.50;;;;;;;;;;7316471;19;154075;-15
2022/07/25 05:48:20;;;;;;;10.63;4.50;;;;;;;;;;7316067;19;162234;-16
2022/07/25 05:50:51;;;;;;;6.30;4.90;;;;;;;;;;7316177;19;163250;-15
2022/07/25 05:53:22;;;;;;;9.85;4.57;;;;;;;;;;7315291;19;154473;-21
2022/07/25 05:55:56;;;;;;;8.25;5.18;;;;;;;;;;7316160;19;154130;-15
2022/07/25 05:58:29;;;;;;;10.70;4.97;;;;;;;;;;7315732;19;162505;-18
2022/07/25 06:01:01;;;;;;;7.10;4.97;;;;;;;;;;7314843;19;163286;-17
2022/07/25 06:03:33;;;;;;;8.00;5.03;;;;;;;;;;7316245;19;154426;-16
2022/07/25 06:06:04;;;;;;;6.72;4.50;;;;;;;;;;7315885;19;154001;-16
2022/07/25 06:08:35;;;;;;;6.47;4.75;;;;;;;;;;7315452;19;162243;-16
2022/07/25 06:11:09;;;;;;;8.25;5.32;;;;;;;;;;7315460;19;162875;-16
2022/07/25 06:13:40;;;;;;;8.73;4.82;;;;;;;;;;7315855;19;154730;-15
2022/07/25 06:16:11;;;;;;;9.57;5.10;;;;;;;;;;7315674;19;154085;-21
2022/07/25 06:18:43;;;;;;;8.75;5.00;;;;;;;;;;7315229;19;163248;-17
2022/07/25 06:21:14;;;;;;;6.65;4.53;;;;;;;;;;7314099;19;163303;-17
2022/07/25 06:23:45;;;;;;;7.72;5.03;;;;;;;;;;7315474;19;154623;-17
2022/07/25 06:26:20;;;;;;;8.95;5.28;;;;;;;;;;7315786;19;154380;-16
2022/07/25 06:28:51;;;;;;;7.53;4.38;;;;;;;;;;7314876;19;162251;-16
2022/07/25 06:31:22;;;;;;;11.40;5.22;;;;;;;;;;7312551;19;162858;-17
2022/07/25 06:33:53;;;;;;;7.95;5.22;;;;;;;;;;7314899;19;155065;-16
2022/07/25 06:36:24;;;;;;;6.95;5.18;;;;;;;;;;7315025;19;154279;-17
2022/07/25 06:38:56;;;;;;;8.90;6.05;;;;;;;;;;7314603;19;161785;-17
2022/07/25 06:41:30;;;;;;;9.57;6.10;;;;;;;;;;7312985;19;163202;-17
2022/07/25 06:44:01;;;;;;;12.13;5.57;;;;;;;;;;7314861;19;154509;-17
2022/07/25 06:46:32;;;;;;;9.80;5.28;;;;;;;;;;7314587;19;154012;-16
2022/07/25 06:49:04;;;;;;;8.38;5.32;;;;;;;;;;7314196;19;162693;-17
2022/07/25 06:51:35;;;;;;;10.73;5.25;;;;;;;;;;7314307;19;163461;-16
2022/07/25 06:54:06;;;;;;;7.90;5.32;;;;;;;;;;7313295;19;154648;-16
2022/07/25 06:56:40;;;;;;;6.93;4.63;;;;;;;;;;7314450;19;154627;-16
2022/07/25 06:59:12;;;;;;;9.73;5.60;;;;;;;;;;7314430;19;162273;-16
2022/07/25 07:01:43;;;;;;;10.38;5.80;;;;;;;;;;7312995;19;162882;-16
2022/07/25 07:04:16;;;;;;;6.35;4.57;;;;;;;;;;7314235;19;154437;-17
2022/07/25 07:06:48;;;;;;;9.05;5.43;;;;;;;;;;7314510;19;153912;-17
2022/07/25 07:09:19;;;;;;;9.55;5.15;;;;;;;;;;7313932;19;162913;-16
2022/07/25 07:11:53;;;;;;;8.85;5.18;;;;;;;;;;7313618;19;163216;-16
2022/07/25 07:14:24;;;;;;;7.90;5.38;;;;;;;;;;7314306;19;154452;-17
2022/07/25 07:16:56;;;;;;;6.32;5.05;;;;;;;;;;7314362;19;154310;-19
2022/07/25 07:19:27;;;;;;;11.73;5.15;;;;;;;;;;7312338;19;161964;-16
2022/07/25 07:21:58;;;;;;;7.50;5.15;;;;;;;;;;7312358;19;162798;-16
2022/07/25 07:24:30;;;;;;;9.05;5.57;;;;;;;;;;7314066;19;154563;-16
2022/07/25 07:27:03;;;;;;;6.65;4.97;;;;;;;;;;7313848;19;153736;-16
2022/07/25 07:29:34;;;;;;;9.38;5.18;;;;;;;;;;7312792;19;162641;-16
2022/07/25 07:32:07;;;;;;;8.73;5.50;;;;;;;;;;7313137;19;163130;-16
2022/07/25 07:34:38;;;;;;;6.50;5.10;;;;;;;;;;7313870;19;154555;-16
2022/07/25 07:37:09;;;;;;;8.75;5.25;;;;;;;;;;7313359;19;154300;-15
2022/07/25 07:39:41;;;;;;;6.93;5.43;;;;;;;;;;7312904;19;162692;-16
2022/07/25 07:42:15;;;;;;;6.90;5.15;;;;;;;;;;7312002;19;163072;-16
2022/07/25 07:44:46;;;;;;;9.70;5.70;;;;;;;;;;7313724;19;155160;-15
2022/07/25 07:47:17;;;;;;;8.13;5.93;;;;;;;;;;7313392;19;154394;-16
2022/07/25 07:49:48;;;;;;;9.98;5.40;;;;;;;;;;7312814;19;162970;-16
2022/07/25 07:52:20;;;;;;;8.90;5.28;;;;;;;;;;7311070;19;163274;-16
2022/07/25 07:57:37;;;;;;;7.43;4.75;;;;;;;;;;7312977;19;154133;-16
2022/07/25 08:00:10;;;;;;;10.70;4.78;;;;;;;;;;7312857;19;162228;-15
2022/07/25 08:02:47;;;;;;;8.38;4.88;;;;;;;;;;7310775;19;163228;-15
2022/07/25 08:05:23;;;;;;;8.90;5.47;;;;;;;;;;7312904;19;155062;-16
2022/07/25 08:07:55;;;;;;;9.00;4.40;;;;;;;;;;7312626;19;154042;-16
2022/07/25 08:10:28;;;;;;;7.13;4.95;;;;;;;;;;7312681;19;162038;-16
2022/07/25 08:13:02;;;;;;;4.85;4.03;;;;;;;;;;7312064;19;162886;-16
2022/07/25 08:15:34;;;;;;;8.77;4.07;;;;;;;;;;7310928;19;154591;-16
2022/07/25 08:18:05;;;;;;;9.20;4.22;;;;;;;;;;7312439;19;153507;-16
2022/07/25 08:20:37;;;;;;;5.03;4.32;;;;;;;;;;7311853;19;162320;-16
2022/07/25 08:23:09;;;;;;;6.68;3.95;;;;;;;;;;7310275;19;163208;-16
2022/07/25 08:25:41;;;;;;;5.90;3.78;;;;;;;;;;7312380;19;154486;-16
2022/07/25 08:28:16;;;;;;;6.57;3.33;;;;;;;;;;7312226;19;154309;-16
2022/07/25 08:30:48;;;;;;;7.35;4.25;;;;;;;;;;7308284;19;161787;-16
2022/07/25 08:33:20;;;;;;;4.53;3.57;;;;;;;;;;7311694;19;162949;-16
2022/07/25 08:35:57;;;;;;;6.50;3.63;;;;;;;;;;7310791;19;133510;-16
2022/07/25 08:38:30;;;;;;;6.47;3.60;;;;;;;;;;7311767;19;154016;-15
2022/07/25 08:41:01;;;;;;;;;;;;;;;;;;7312023;19;162628;-16
2022/07/25 08:43:38;;;;;;;7.28;3.63;;;;;;;;;;7309459;19;162870;-16
2022/07/25 08:46:09;;;;;;;6.93;3.45;;;;;;;;;;7311428;19;154499;-16
2022/07/25 08:48:41;;;;;;;6.55;3.65;;;;;;;;;;7311447;19;153988;-15
2022/07/25 08:51:13;;;;;;;6.00;3.70;;;;;;;;;;7310997;19;162309;-15
2022/07/25 08:53:45;;;;;;;3.90;3.28;;;;;;;;;;7309363;19;162778;-16
2022/07/25 08:56:16;;;;;;;4.00;3.13;;;;;;;;;;7311545;19;154464;-16
2022/07/25 08:58:53;;;;;;;5.53;3.47;;;;;;;;;;7309709;19;153969;-16
2022/07/25 09:01:24;;;;;;;9.88;4.03;;;;;;;;;;7310615;19;162225;-17
2022/07/25 09:03:56;;;;;;;7.63;3.40;;;;;;;;;;7308807;19;162843;-15
2022/07/25 09:06:27;;;;;;;6.78;4.00;;;;;;;;;;7311075;19;154511;-16
2022/07/25 09:09:03;;;;;;;6.90;3.45;;;;;;;;;;7310997;19;154195;-16
2022/07/25 09:11:36;;;;;;;5.53;3.50;;;;;;;;;;7309847;19;162221;-18
2022/07/25 09:14:12;;;;;;;5.45;3.28;;;;;;;;;;7310426;19;162864;-16
2022/07/25 09:16:45;;;;;;;7.35;3.97;;;;;;;;;;7311075;19;154870;-16
2022/07/25 09:19:18;;;;;;;7.40;3.53;;;;;;;;;;7310626;19;154339;-16
2022/07/25 09:21:59;;;;;;;;;;;;;;;;;;7310740;19;162244;-16
2022/07/25 09:24:31;;;;;;;6.38;3.22;;;;;;;;;;7308020;19;162975;-16
2022/07/25 09:27:09;;;;;;;6.32;3.80;;;;;;;;;;7310619;19;154500;-16
2022/07/25 09:29:45;;;;;;;5.38;3.42;;;;;;;;;;7309520;19;153936;-17
2022/07/25 09:32:18;;;;;;;5.32;3.72;;;;;;;;;;7310127;19;162692;-17
2022/07/25 09:34:51;;;;;;;4.72;3.40;;;;;;;;;;7309590;19;163007;-17
2022/07/25 09:37:28;;;;;;;5.00;3.30;;;;;;;;;;7310164;19;154505;-17
2022/07/25 09:39:59;;;;;;;3.90;3.10;;;;;;;;;;7308258;19;154731;-17
2022/07/25 09:42:35;;;;;;;5.63;2.70;;;;;;;;;;7309424;19;162746;-17
2022/07/25 09:45:11;;;;;;;5.35;3.15;;;;;;;;;;7306905;19;162884;-16
2022/07/25 09:47:55;;;;;;;3.83;3.00;;;;;;;;;;7310143;19;154620;-17
2022/07/25 09:50:28;;;;;;;6.22;3.38;;;;;;;;;;7309797;19;153894;-17
2022/07/25 09:53:01;;;;;;;4.75;3.33;;;;;;;;;;7308992;19;162711;-17
2022/07/25 09:55:32;;;;;;;5.53;3.15;;;;;;;;;;7308992;19;163428;-17
2022/07/25 09:58:04;;;;;;;4.25;2.95;;;;;;;;;;7309495;19;155604;-17
2022/07/25 10:00:37;;;;;;;3.95;3.00;;;;;;;;;;7309064;19;153928;-17
2022/07/25 10:03:20;;;;;;;5.38;3.08;;;;;;;;;;7308712;19;162310;-17
2022/07/25 10:06:13;;;;;;;6.82;3.58;;;;;;;;;;7308806;19;163369;-17
2022/07/25 10:08:45;;;;;;;6.53;3.30;;;;;;;;;;7309308;19;154770;-17
2022/07/25 10:11:24;;;;;;;4.87;3.03;;;;;;;;;;7309367;19;154380;-17
2022/07/25 10:13:56;;;;;;;5.50;3.20;;;;;;;;;;7308305;19;162444;-17
2022/07/25 10:16:30;;;;;;;5.10;2.75;;;;;;;;;;7314501;19;163313;-17
2022/07/25 10:19:01;;;;;;;3.63;2.88;;;;;;;;;;7316016;19;155001;-17
2022/07/25 10:21:33;;;;;;;5.07;3.20;;;;;;;;;;7315872;19;154123;-17
2022/07/25 10:24:07;;;;;;;3.35;2.60;;;;;;;;;;7314362;19;162247;-16
2022/07/25 10:26:40;;;;;;;6.85;3.40;;;;;;;;;;7315017;19;162676;-16
2022/07/25 10:29:12;;;;;;;;;;;;;;;;;;7316140;19;154466;-17
2022/07/25 10:31:47;;;;;;;4.75;2.72;;;;;;;;;;7315407;19;153749;-17
2022/07/25 10:34:31;;;;;;;6.15;2.47;;;;;;;;;;7314777;19;162646;-17
2022/07/25 10:37:12;;;;;;;6.63;2.80;;;;;;;;;;7314900;19;162850;-17
2022/07/25 10:39:47;;;;;;;5.10;3.00;;;;;;;;;;7315182;19;154450;-17
2022/07/25 10:42:22;;;;;;;4.50;2.70;;;;;;;;;;7313292;19;154031;-17
2022/07/25 10:44:57;;;;;;;4.68;3.00;;;;;;;;;;7313195;19;162770;-17
2022/07/25 10:47:31;;;;;;;4.30;2.78;;;;;;;;;;7314864;19;162817;-17
2022/07/25 10:50:05;;;;;;;4.00;2.90;;;;;;;;;;7315065;19;155154;-17
2022/07/25 10:52:46;;;;;;;6.93;3.20;;;;;;;;;;7314655;19;153923;-16
2022/07/25 10:55:25;;;;;;;4.72;2.70;;;;;;;;;;7314353;19;162683;-16
2022/07/25 10:58:04;;;;;;;5.15;3.08;;;;;;;;;;7314262;19;162789;-17
2022/07/25 11:00:51;;;;;;;4.28;2.92;;;;;;;;;;7314673;19;154873;-17
2022/07/25 11:03:26;;;;;;;4.57;2.75;;;;;;;;;;7314402;19;154136;-16
2022/07/25 11:05:58;;;;;;;7.78;3.17;;;;;;;;;;7311651;19;162804;-16
2022/07/25 11:08:34;;;;;;;5.47;3.00;;;;;;;;;;7312400;19;163426;-16
2022/07/25 11:11:05;;;;;;;7.63;3.10;;;;;;;;;;7312816;19;154662;-16
2022/07/25 11:13:41;;;;;;;4.25;3.20;;;;;;;;;;7314314;19;153998;-16
2022/07/25 11:16:12;;;;;;;6.80;2.92;;;;;;;;;;7313730;19;162190;-17
2022/07/25 11:18:48;;;;;;;6.05;3.40;;;;;;;;;;7313817;19;163324;-17
2022/07/25 11:21:19;;;;;;;4.63;3.00;;;;;;;;;;7314129;19;154418;-17
2022/07/25 11:23:52;;;;;;;5.57;3.33;;;;;;;;;;7313907;19;154702;-16
2022/07/25 11:26:24;;;;;;;7.82;3.47;;;;;;;;;;7311088;19;162192;-17
2022/07/25 11:28:55;;;;;;;4.60;3.53;;;;;;;;;;7313417;19;163366;-17
2022/07/25 11:31:26;;;;;;;6.05;3.55;;;;;;;;;;7309812;19;154631;-16
2022/07/25 11:34:00;;;;;;;7.07;2.92;;;;;;;;;;7314107;19;154978;-16
2022/07/25 11:36:32;;;;;;;8.77;3.35;;;;;;;;;;7313308;19;162248;-16
2022/07/25 11:39:03;;;;;;;8.02;3.15;;;;;;;;;;7313146;19;162845;-16
2022/07/25 11:41:34;;;;;;;6.13;3.35;;;;;;;;;;7313589;19;153945;-17
2022/07/25 11:44:06;;;;;;;6.13;3.10;;;;;;;;;;7313671;19;154551;-17
2022/07/25 11:46:44;;;;;;;4.00;3.00;;;;;;;;;;7313416;19;162231;-16
2022/07/25 11:49:18;;;;;;;5.55;3.10;;;;;;;;;;7313431;19;162831;-17
2022/07/25 11:51:49;;;;;;;4.90;3.30;;;;;;;;;;7313391;19;154444;-17
2022/07/25 11:54:20;;;;;;;7.18;4.22;;;;;;;;;;7312937;19;154123;-16
2022/07/25 11:56:51;;;;;;;9.98;3.70;;;;;;;;;;7312751;19;163275;-16
2022/07/25 11:59:24;;;;;;;8.45;3.28;;;;;;;;;;7312879;19;163283;-16
2022/07/25 12:01:55;;;;;;;8.67;3.50;;;;;;;;;;7313096;19;154880;-18
2022/07/25 12:04:29;;;;;;;8.07;4.18;;;;;;;;;;7312892;19;154005;-17
2022/07/25 12:07:07;;;;;;;10.63;3.40;;;;;;;;;;7312503;19;162294;-17
2022/07/25 12:09:38;;;;;;;6.22;3.47;;;;;;;;;;7312477;19;163385;-17
2022/07/25 12:12:10;;;;;;;5.57;3.53;;;;;;;;;;7312839;19;154823;-16
2022/07/25 12:14:45;;;;;;;6.80;3.65;;;;;;;;;;7312811;19;154298;-18
2022/07/25 12:17:16;;;;;;;8.30;3.78;;;;;;;;;;7312552;19;162301;-16
2022/07/25 12:19:50;;;;;;;6.05;3.60;;;;;;;;;;7312556;19;163259;-17
2022/07/25 12:22:21;;;;;;;8.05;4.30;;;;;;;;;;7310751;19;154680;-17
2022/07/25 12:24:52;;;;;;;8.85;3.78;;;;;;;;;;7311994;19;154309;-17
2022/07/25 12:27:24;;;;;;;7.80;3.63;;;;;;;;;;7312001;19;162785;-17
2022/07/25 12:29:55;;;;;;;11.47;3.97;;;;;;;;;;7311277;19;163440;-17
2022/07/25 12:32:27;;;;;;;9.35;3.58;;;;;;;;;;7310605;19;154475;-17
2022/07/25 12:35:00;;;;;;;9.50;3.88;;;;;;;;;;7312015;19;153884;-16
2022/07/25 12:37:32;;;;;;;7.82;4.50;;;;;;;;;;7310737;19;162252;-17
2022/07/25 12:40:03;;;;;;;7.35;4.00;;;;;;;;;;7311412;19;162787;-17
2022/07/25 12:42:34;;;;;;;8.52;3.88;;;;;;;;;;7312411;19;154396;-17
2022/07/25 12:45:07;;;;;;;11.32;4.28;;;;;;;;;;7311277;19;153968;-17
2022/07/25 12:47:38;;;;;;;8.60;3.97;;;;;;;;;;7311320;19;162386;-17
2022/07/25 12:50:12;;;;;;;7.68;4.22;;;;;;;;;;7310903;19;163161;-15
2022/07/25 12:52:44;;;;;;;6.95;3.50;;;;;;;;;;7311847;19;154425;-15
2022/07/25 12:55:18;;;;;;;9.43;3.97;;;;;;;;;;7311629;19;153979;-15
2022/07/25 12:57:49;;;;;;;11.73;3.63;;;;;;;;;;7311070;19;162665;-17
2022/07/25 13:00:23;;;;;;;8.25;3.88;;;;;;;;;;7310845;19;163305;-15
2022/07/25 13:02:54;;;;;;;10.43;4.10;;;;;;;;;;7311315;19;154488;-15
2022/07/25 13:05:29;;;;;;;7.23;3.97;;;;;;;;;;7310692;19;154548;-15
2022/07/25 13:08:00;;;;;;;7.90;3.72;;;;;;;;;;7310844;19;162729;-14
2022/07/25 13:10:31;;;;;;;10.73;3.92;;;;;;;;;;7310908;19;162887;-15
2022/07/25 13:13:02;;;;;;;9.10;4.13;;;;;;;;;;7310730;19;154415;-16
2022/07/25 13:15:35;;;;;;;6.85;3.53;;;;;;;;;;7310874;19;154403;-15
2022/07/25 13:18:06;;;;;;;;;;;;;;;;;;7311331;19;162355;-16
2022/07/25 13:20:40;;;;;;;11.90;3.95;;;;;;;;;;7310708;19;162905;-15
2022/07/25 13:23:11;;;;;;;6.88;3.83;;;;;;;;;;7310580;19;154792;-15
2022/07/25 13:25:45;;;;;;;9.65;3.38;;;;;;;;;;7309992;19;154031;-16
2022/07/25 13:28:16;;;;;;;9.65;3.72;;;;;;;;;;7310324;19;162257;-17
2022/07/25 13:30:47;;;;;;;7.43;3.08;;;;;;;;;;7308209;19;162762;-16
2022/07/25 13:33:18;;;;;;;9.98;3.67;;;;;;;;;;7310200;19;154089;-17
2022/07/25 13:35:53;;;;;;;10.48;3.25;;;;;;;;;;7310452;19;154025;-17
2022/07/25 13:38:25;;;;;;;9.75;2.78;;;;;;;;;;7310071;19;162915;-17
2022/07/25 13:40:56;;;;;;;11.07;3.10;;;;;;;;;;7308909;19;163032;-16
2022/07/25 13:43:28;;;;;;;5.18;3.38;;;;;;;;;;7310265;19;154470;-16
2022/07/25 13:45:59;;;;;;;5.93;3.13;;;;;;;;;;7309443;19;154059;-17
2022/07/25 13:48:31;;;;;;;7.57;2.60;;;;;;;;;;7307849;19;162388;-17
2022/07/25 13:51:07;;;;;;;7.50;2.85;;;;;;;;;;7313890;19;163361;-17
2022/07/25 13:53:39;;;;;;;7.47;2.97;;;;;;;;;;7316833;19;154443;-17
2022/07/25 13:56:11;;;;;;;8.93;3.47;;;;;;;;;;7316628;19;153942;-17
2022/07/25 13:58:42;;;;;;;9.90;2.63;;;;;;;;;;7316277;19;162269;-17
2022/07/25 14:01:13;;;;;;;6.80;2.90;;;;;;;;;;7316276;19;163213;-16
2022/07/25 14:03:45;;;;;;;8.48;2.90;;;;;;;;;;7316298;19;154818;-16
2022/07/25 14:06:19;;;;;;;8.13;2.80;;;;;;;;;;7315798;19;154546;-17
2022/07/25 14:08:50;;;;;;;6.82;2.55;;;;;;;;;;7315922;19;162720;-17
2022/07/25 14:11:21;;;;;;;4.22;2.55;;;;;;;;;;7315673;19;162993;-17
2022/07/25 14:13:54;;;;;;;7.80;3.05;;;;;;;;;;7316175;19;154822;-16
2022/07/25 14:16:26;;;;;;;8.15;3.10;;;;;;;;;;7315989;19;153945;-17
2022/07/25 14:18:57;;;;;;;6.63;3.03;;;;;;;;;;7315749;19;162296;-17
2022/07/25 14:21:31;;;;;;;6.40;3.22;;;;;;;;;;7315691;19;162878;-16
2022/07/25 14:24:02;;;;;;;6.32;3.10;;;;;;;;;;7315520;19;154835;-17
2022/07/25 14:26:34;;;;;;;6.50;2.50;;;;;;;;;;7314773;19;155240;-17
2022/07/25 14:29:09;;;;;;;9.52;3.20;;;;;;;;;;7314681;19;162286;-18
2022/07/25 14:31:41;;;;;;;8.35;2.83;;;;;;;;;;7314726;19;162794;-17
2022/07/25 14:34:14;;;;;;;7.10;2.70;;;;;;;;;;7315442;19;154866;-17
2022/07/25 14:36:48;;;;;;;6.30;2.47;;;;;;;;;;7315269;19;153900;-17
2022/07/25 14:39:19;;;;;;;7.10;2.85;;;;;;;;;;7315095;19;162756;-17
2022/07/25 14:41:50;;;;;;;5.15;2.58;;;;;;;;;;7315008;19;162811;-17
2022/07/25 14:44:22;;;;;;;4.22;2.72;;;;;;;;;;7315032;19;154486;-16
2022/07/25 14:46:53;;;;;;;6.63;2.75;;;;;;;;;;7314412;19;154006;-16
2022/07/25 14:49:25;;;;;;;5.18;2.60;;;;;;;;;;7314796;19;162834;-17
2022/07/25 14:51:58;;;;;;;5.25;3.03;;;;;;;;;;7314770;19;163376;-16
2022/07/25 14:54:30;;;;;;;6.30;3.00;;;;;;;;;;7312716;19;154420;-17
2022/07/25 14:57:01;;;;;;;4.72;2.70;;;;;;;;;;7314971;19;154364;-17
2022/07/25 14:59:32;;;;;;;5.80;2.88;;;;;;;;;;7314423;19;162721;-17
2022/07/25 15:02:03;;;;;;;6.47;2.97;;;;;;;;;;7313940;19;163267;-17
2022/07/25 15:04:34;;;;;;;3.97;3.03;;;;;;;;;;7314710;19;154460;-17